Time;durP1;ratioP1;P1;durP2;ratioP2;P2;SDS_P1;SDS_P2;PMS_P1;PMS_P2;Temp;Humidity;BMP_temperature;BMP_pressure;BME280_temperature;BME280_humidity;BME280_pressure;Samples;Min_cycle;Max_cycle;Signal;HPM_P1;HPM_P2
2023/01/19 00:02:08;;;;;;;62.53;28.05;;;;;;;;;;6263531;28;20390;-74
2023/01/19 00:05:10;;;;;;;58.53;28.33;;;;;;;;;;6264557;28;20377;-75
2023/01/19 00:08:15;;;;;;;58.60;27.52;;;;;;;;;;6267563;28;20055;-76
2023/01/19 00:11:17;;;;;;;61.47;28.15;;;;;;;;;;6271651;28;20057;-77
2023/01/19 00:14:19;;;;;;;64.10;28.30;;;;;;;;;;6267159;28;20260;-73
2023/01/19 00:17:22;;;;;;;57.10;28.40;;;;;;;;;;6268194;28;20386;-72
2023/01/19 00:20:24;;;;;;;56.25;27.33;;;;;;;;;;6266086;28;20045;-69
2023/01/19 00:23:25;;;;;;;59.47;28.50;;;;;;;;;;6266166;28;20056;-76
2023/01/19 00:26:27;;;;;;;59.65;28.10;;;;;;;;;;6268828;28;20055;-76
2023/01/19 00:29:32;;;;;;;99.60;43.20;;;;;;;;;;6266080;28;20045;-79
2023/01/19 00:32:35;;;;;;;159.95;71.55;;;;;;;;;;6265341;28;20059;-80
2023/01/19 00:35:37;;;;;;;79.22;37.65;;;;;;;;;;6266333;28;20139;-80
2023/01/19 00:38:38;;;;;;;69.30;33.20;;;;;;;;;;6266256;28;20087;-77
2023/01/19 00:44:59;;;;;;;85.85;40.88;;;;;;;;;;6264585;28;20045;-75
2023/01/19 00:48:02;;;;;;;74.10;35.28;;;;;;;;;;6268386;28;20052;-77
2023/01/19 00:51:04;;;;;;;60.20;28.80;;;;;;;;;;6266219;28;20045;-76
2023/01/19 00:54:09;;;;;;;57.05;27.52;;;;;;;;;;6264655;28;20082;-72
2023/01/19 00:57:11;;;;;;;63.25;29.20;;;;;;;;;;6265502;28;20053;-78
2023/01/19 01:00:15;;;;;;;59.45;26.55;;;;;;;;;;6262188;28;20110;-76
2023/01/19 01:03:18;;;;;;;56.72;27.15;;;;;;;;;;6266590;28;20046;-76
2023/01/19 01:06:19;;;;;;;60.15;27.38;;;;;;;;;;6264652;28;20163;-75
2023/01/19 01:09:22;;;;;;;60.42;27.20;;;;;;;;;;6266234;28;20053;-75
2023/01/19 01:12:24;;;;;;;56.97;26.42;;;;;;;;;;6266029;28;20131;-75
2023/01/19 01:15:26;;;;;;;56.22;25.80;;;;;;;;;;6266686;28;20057;-77
2023/01/19 01:18:29;;;;;;;59.28;26.90;;;;;;;;;;6264869;28;20049;-75
2023/01/19 01:21:33;;;;;;;57.47;27.15;;;;;;;;;;6262587;28;20057;-72
2023/01/19 01:24:35;;;;;;;58.83;28.08;;;;;;;;;;6264786;28;20079;-74
2023/01/19 01:27:37;;;;;;;62.47;28.30;;;;;;;;;;6264652;28;20059;-77
2023/01/19 01:30:39;;;;;;;56.88;26.23;;;;;;;;;;6264192;28;20060;-73
2023/01/19 01:33:42;;;;;;;58.70;27.52;;;;;;;;;;6265648;28;20049;-75
2023/01/19 01:36:44;;;;;;;55.13;26.65;;;;;;;;;;6264758;28;20044;-77
2023/01/19 01:39:46;;;;;;;60.25;28.30;;;;;;;;;;6262583;28;20053;-71
2023/01/19 01:42:47;;;;;;;57.47;27.10;;;;;;;;;;6264751;28;20059;-76
2023/01/19 01:45:49;;;;;;;58.22;26.35;;;;;;;;;;6263226;28;20081;-76
2023/01/19 01:48:56;;;;;;;59.95;27.40;;;;;;;;;;6263046;28;20329;-76
2023/01/19 01:51:58;;;;;;;58.22;27.90;;;;;;;;;;6262005;28;20064;-76
2023/01/19 01:55:00;;;;;;;55.80;26.27;;;;;;;;;;6265044;28;20057;-76
2023/01/19 01:58:04;;;;;;;57.67;26.55;;;;;;;;;;6263484;28;20051;-73
2023/01/19 02:04:26;;;;;;;59.25;26.88;;;;;;;;;;6263697;28;20045;-76
2023/01/19 02:14:14;;;;;;;56.50;26.08;;;;;;;;;;6263191;28;20045;-75
2023/01/19 02:17:15;;;;;;;55.80;26.02;;;;;;;;;;6262198;28;20048;-75
2023/01/19 02:20:21;;;;;;;57.85;25.67;;;;;;;;;;6266238;28;20045;-75
2023/01/19 02:23:34;;;;;;;62.50;26.92;;;;;;;;;;6266770;28;20060;-76
2023/01/19 02:26:38;;;;;;;56.78;26.75;;;;;;;;;;6265807;28;20061;-74
2023/01/19 02:29:40;;;;;;;56.00;25.52;;;;;;;;;;6268593;28;20060;-75
2023/01/19 02:32:42;;;;;;;62.53;28.00;;;;;;;;;;6263927;28;20061;-75
2023/01/19 02:35:44;;;;;;;57.80;26.92;;;;;;;;;;6266045;28;20068;-76
2023/01/19 02:38:49;;;;;;;58.00;27.00;;;;;;;;;;6268542;28;20361;-74
2023/01/19 02:41:53;;;;;;;57.15;26.70;;;;;;;;;;6266866;28;20051;-74
2023/01/19 02:44:55;;;;;;;;;;;;;;;;;;6267467;28;20046;-75
2023/01/19 02:47:57;;;;;;;53.42;24.77;;;;;;;;;;6265352;28;19950;-75
2023/01/19 02:51:03;;;;;;;61.80;26.98;;;;;;;;;;6259605;28;20059;-74
2023/01/19 02:54:17;;;;;;;58.50;27.00;;;;;;;;;;6266380;28;20084;-75
2023/01/19 02:57:27;;;;;;;61.50;27.30;;;;;;;;;;6262977;28;23690;-75
2023/01/19 03:00:35;;;;;;;62.88;26.58;;;;;;;;;;6262635;28;20049;-76
2023/01/19 03:03:42;;;;;;;64.22;26.60;;;;;;;;;;6263203;28;20364;-69
2023/01/19 03:06:48;;;;;;;64.32;28.17;;;;;;;;;;6259997;28;20061;-76
2023/01/19 03:09:54;;;;;;;62.90;27.02;;;;;;;;;;6265941;28;20113;-75
2023/01/19 03:13:01;;;;;;;60.47;26.45;;;;;;;;;;6262116;28;20061;-75
2023/01/19 03:16:06;;;;;;;64.53;27.95;;;;;;;;;;6261795;28;20044;-76
2023/01/19 03:19:12;;;;;;;64.22;26.00;;;;;;;;;;6259540;28;20045;-77
2023/01/19 03:22:17;;;;;;;63.95;28.20;;;;;;;;;;6262326;28;20055;-72
2023/01/19 03:25:21;;;;;;;70.68;28.50;;;;;;;;;;6264852;28;20049;-75
2023/01/19 03:28:24;;;;;;;67.43;26.95;;;;;;;;;;6261886;28;20155;-75
2023/01/19 03:31:27;;;;;;;64.35;27.55;;;;;;;;;;6261462;28;20048;-73
2023/01/19 03:34:29;;;;;;;62.33;27.45;;;;;;;;;;6263455;28;20330;-76
2023/01/19 03:37:31;;;;;;;62.92;27.45;;;;;;;;;;6264025;28;20398;-76
2023/01/19 03:40:35;;;;;;;69.28;27.33;;;;;;;;;;6263465;28;20094;-75
2023/01/19 03:43:38;;;;;;;67.03;27.07;;;;;;;;;;6261570;28;20049;-76
2023/01/19 03:46:40;;;;;;;69.60;29.20;;;;;;;;;;6267414;28;20475;-74
2023/01/19 03:49:44;;;;;;;63.05;26.60;;;;;;;;;;6264188;28;20097;-74
2023/01/19 03:52:45;;;;;;;68.13;27.58;;;;;;;;;;6271796;28;20091;-74
2023/01/19 03:55:52;;;;;;;59.53;26.65;;;;;;;;;;6270698;28;20045;-76
2023/01/19 03:58:54;;;;;;;64.03;27.30;;;;;;;;;;6270076;28;20057;-73
2023/01/19 04:01:55;;;;;;;60.35;24.80;;;;;;;;;;6271414;28;20057;-75
2023/01/19 04:04:57;;;;;;;58.63;25.15;;;;;;;;;;6268418;28;20052;-76
2023/01/19 04:07:59;;;;;;;59.25;25.42;;;;;;;;;;6270056;28;20056;-75
2023/01/19 04:11:02;;;;;;;58.58;25.02;;;;;;;;;;6271178;28;20065;-77
2023/01/19 04:14:04;;;;;;;60.15;24.60;;;;;;;;;;6270487;28;20049;-71
2023/01/19 04:17:06;;;;;;;53.33;24.75;;;;;;;;;;6266600;28;20218;-74
2023/01/19 04:20:09;;;;;;;58.55;24.92;;;;;;;;;;6266554;28;20049;-76
2023/01/19 04:23:10;;;;;;;55.05;24.85;;;;;;;;;;6266827;28;20045;-76
2023/01/19 04:26:13;;;;;;;61.53;25.30;;;;;;;;;;6265605;28;20355;-76
2023/01/19 04:29:15;;;;;;;58.40;25.58;;;;;;;;;;6265293;28;20102;-76
2023/01/19 04:32:17;;;;;;;56.20;24.85;;;;;;;;;;6264853;28;20048;-76
2023/01/19 04:35:18;;;;;;;54.03;23.25;;;;;;;;;;6262090;28;20053;-75
2023/01/19 04:38:20;;;;;;;54.95;23.38;;;;;;;;;;6264523;28;20249;-76
2023/01/19 04:41:23;;;;;;;51.92;23.73;;;;;;;;;;6263834;28;20127;-74
2023/01/19 04:44:25;;;;;;;65.10;24.75;;;;;;;;;;6265036;28;20095;-71
2023/01/19 04:47:26;;;;;;;62.17;24.42;;;;;;;;;;6266146;28;20056;-73
2023/01/19 04:50:28;;;;;;;56.45;23.77;;;;;;;;;;6266040;28;20050;-75
2023/01/19 04:53:30;;;;;;;56.38;24.55;;;;;;;;;;6266137;28;20053;-76
2023/01/19 04:56:33;;;;;;;57.00;24.40;;;;;;;;;;6264661;28;20737;-75
2023/01/19 04:59:35;;;;;;;58.33;23.83;;;;;;;;;;6268831;28;20067;-74
2023/01/19 05:02:36;;;;;;;56.42;24.48;;;;;;;;;;6268810;28;20053;-76
2023/01/19 05:05:38;;;;;;;51.63;23.48;;;;;;;;;;6264098;28;20051;-70
2023/01/19 05:08:40;;;;;;;48.83;22.83;;;;;;;;;;6266736;28;20102;-76
2023/01/19 05:11:43;;;;;;;53.92;21.83;;;;;;;;;;6262391;28;20060;-75
2023/01/19 05:14:44;;;;;;;54.88;23.38;;;;;;;;;;6263099;28;20080;-74
2023/01/19 05:17:46;;;;;;;48.45;21.80;;;;;;;;;;6264676;28;20383;-76
2023/01/19 05:20:48;;;;;;;50.47;24.30;;;;;;;;;;6264044;28;20081;-76
2023/01/19 05:23:50;;;;;;;59.35;25.30;;;;;;;;;;6264988;28;20056;-76
2023/01/19 05:26:53;;;;;;;59.42;24.45;;;;;;;;;;6266201;28;20331;-77
2023/01/19 05:29:54;;;;;;;61.22;26.45;;;;;;;;;;6264082;28;20337;-77
2023/01/19 05:32:56;;;;;;;56.60;24.77;;;;;;;;;;6263404;28;20056;-76
2023/01/19 05:35:57;;;;;;;61.03;25.90;;;;;;;;;;6265985;28;20079;-71
2023/01/19 05:38:59;;;;;;;58.20;26.48;;;;;;;;;;6265431;28;20187;-77
2023/01/19 05:42:02;;;;;;;54.90;25.77;;;;;;;;;;6260686;28;20534;-69
2023/01/19 05:45:05;;;;;;;59.58;25.60;;;;;;;;;;6263632;28;20053;-69
2023/01/19 05:48:07;;;;;;;56.20;23.85;;;;;;;;;;6263880;28;20063;-76
2023/01/19 05:51:09;;;;;;;58.42;26.35;;;;;;;;;;6263485;28;20053;-76
2023/01/19 05:54:13;;;;;;;57.85;25.17;;;;;;;;;;6262943;28;20052;-75
2023/01/19 05:57:16;;;;;;;50.72;23.27;;;;;;;;;;6263055;28;20283;-77
2023/01/19 06:00:18;;;;;;;54.20;23.77;;;;;;;;;;6264908;28;20053;-74
2023/01/19 06:03:19;;;;;;;51.78;24.90;;;;;;;;;;6263677;28;20061;-74
2023/01/19 06:06:21;;;;;;;50.30;23.98;;;;;;;;;;6262735;28;20280;-74
2023/01/19 06:09:23;;;;;;;56.72;24.73;;;;;;;;;;6261564;28;20051;-77
2023/01/19 06:12:26;;;;;;;58.72;24.90;;;;;;;;;;6264508;28;20057;-75
2023/01/19 06:15:28;;;;;;;55.42;25.17;;;;;;;;;;6263913;28;20124;-72
2023/01/19 06:18:30;;;;;;;54.72;24.50;;;;;;;;;;6262751;28;20230;-75
2023/01/19 06:21:32;;;;;;;50.65;24.40;;;;;;;;;;6260628;28;20061;-72
2023/01/19 06:24:34;;;;;;;52.60;24.42;;;;;;;;;;6262011;28;20340;-74
2023/01/19 06:27:38;;;;;;;54.30;24.92;;;;;;;;;;6264128;28;20279;-74
2023/01/19 06:30:40;;;;;;;49.67;23.60;;;;;;;;;;6262307;28;20664;-73
2023/01/19 06:33:42;;;;;;;57.13;25.88;;;;;;;;;;6263985;28;20044;-74
2023/01/19 06:36:43;;;;;;;49.60;24.90;;;;;;;;;;6262012;28;20174;-74
2023/01/19 06:39:45;;;;;;;55.05;26.42;;;;;;;;;;6264569;28;20045;-73
2023/01/19 06:42:48;;;;;;;58.83;27.52;;;;;;;;;;6263672;28;20094;-74
2023/01/19 06:45:50;;;;;;;49.40;23.27;;;;;;;;;;6264645;28;20045;-74
2023/01/19 06:48:51;;;;;;;43.30;18.50;;;;;;;;;;6261911;28;20053;-74
2023/01/19 06:51:53;;;;;;;22.60;10.27;;;;;;;;;;6263501;28;20170;-72
2023/01/19 06:54:55;;;;;;;17.25;8.18;;;;;;;;;;6262344;28;20068;-72
2023/01/19 06:57:59;;;;;;;14.50;7.53;;;;;;;;;;6262888;28;20135;-70
2023/01/19 07:01:02;;;;;;;15.35;6.47;;;;;;;;;;6260560;28;20053;-67
2023/01/19 07:04:03;;;;;;;12.75;6.03;;;;;;;;;;6260865;28;20353;-73
2023/01/19 07:07:05;;;;;;;13.38;6.55;;;;;;;;;;6263470;28;20053;-70
2023/01/19 07:10:08;;;;;;;16.20;7.55;;;;;;;;;;6262685;28;20098;-72
2023/01/19 07:13:11;;;;;;;16.00;7.45;;;;;;;;;;6261359;28;20053;-72
2023/01/19 07:16:13;;;;;;;20.05;8.13;;;;;;;;;;6261794;28;20058;-68
2023/01/19 07:19:14;;;;;;;22.70;9.18;;;;;;;;;;6263428;28;20090;-72
2023/01/19 07:22:16;;;;;;;27.92;11.68;;;;;;;;;;6269208;28;20053;-72
2023/01/19 07:25:18;;;;;;;25.73;11.60;;;;;;;;;;6268615;28;20052;-73
2023/01/19 07:28:21;;;;;;;25.08;10.82;;;;;;;;;;6265938;28;20061;-73
2023/01/19 07:31:22;;;;;;;23.52;10.98;;;;;;;;;;6268442;28;20052;-69
2023/01/19 07:34:24;;;;;;;21.35;9.70;;;;;;;;;;6266414;28;20057;-73
2023/01/19 07:37:26;;;;;;;18.75;8.48;;;;;;;;;;6264231;28;20053;-75
2023/01/19 07:40:28;;;;;;;12.13;6.30;;;;;;;;;;6268328;28;20052;-78
2023/01/19 07:43:31;;;;;;;10.63;4.80;;;;;;;;;;6266833;28;20052;-76
2023/01/19 07:46:33;;;;;;;8.55;3.90;;;;;;;;;;6268544;28;20052;-78
2023/01/19 07:49:35;;;;;;;8.80;3.53;;;;;;;;;;6263733;28;20064;-70
2023/01/19 07:52:36;;;;;;;7.15;3.55;;;;;;;;;;6267411;28;20049;-73
2023/01/19 07:55:38;;;;;;;9.13;3.80;;;;;;;;;;6264655;28;20326;-71
2023/01/19 07:58:41;;;;;;;8.23;3.90;;;;;;;;;;6265739;28;20353;-72
2023/01/19 08:01:43;;;;;;;9.40;3.63;;;;;;;;;;6266365;28;20053;-69
2023/01/19 08:04:47;;;;;;;7.13;3.58;;;;;;;;;;6269829;28;20151;-68
2023/01/19 08:07:49;;;;;;;;;;;;;;;;;;6270054;28;20103;-68
2023/01/19 08:10:51;;;;;;;10.07;3.35;;;;;;;;;;6264922;28;19931;-70
2023/01/19 08:13:54;;;;;;;5.88;3.13;;;;;;;;;;6268911;28;20071;-70
2023/01/19 08:16:59;;;;;;;7.85;3.20;;;;;;;;;;6265247;28;20045;-70
2023/01/19 08:20:01;;;;;;;4.40;2.50;;;;;;;;;;6263217;28;20308;-73
2023/01/19 08:23:04;;;;;;;3.00;1.83;;;;;;;;;;6268336;28;20076;-73
2023/01/19 08:26:18;;;;;;;3.55;2.08;;;;;;;;;;6266075;28;20045;-71
2023/01/19 08:29:21;;;;;;;2.92;1.98;;;;;;;;;;6266791;28;20048;-72
2023/01/19 08:32:22;;;;;;;2.80;1.52;;;;;;;;;;6265446;28;20061;-72
2023/01/19 08:35:24;;;;;;;4.18;2.05;;;;;;;;;;6263830;28;20248;-71
2023/01/19 08:38:26;;;;;;;3.45;1.67;;;;;;;;;;6267455;28;20352;-72
2023/01/19 08:41:27;;;;;;;4.70;1.65;;;;;;;;;;6265118;28;20048;-73
2023/01/19 08:44:30;;;;;;;3.20;1.98;;;;;;;;;;6266103;28;20091;-73
2023/01/19 08:47:32;;;;;;;2.83;1.67;;;;;;;;;;6263639;28;20048;-69
2023/01/19 08:50:34;;;;;;;4.28;1.50;;;;;;;;;;6263865;28;20054;-72
2023/01/19 08:53:36;;;;;;;3.38;1.50;;;;;;;;;;6267775;28;20044;-73
2023/01/19 08:56:37;;;;;;;4.60;1.58;;;;;;;;;;6264138;28;20063;-72
2023/01/19 08:59:40;;;;;;;2.50;1.30;;;;;;;;;;6266776;28;20045;-70
2023/01/19 09:02:42;;;;;;;2.08;1.20;;;;;;;;;;6263188;28;20041;-73
2023/01/19 09:05:44;;;;;;;3.47;2.17;;;;;;;;;;6264931;28;20053;-72
2023/01/19 09:08:47;;;;;;;3.30;1.60;;;;;;;;;;6263986;28;20057;-73
2023/01/19 09:11:48;;;;;;;3.78;1.60;;;;;;;;;;6265937;28;20143;-72
2023/01/19 09:14:51;;;;;;;3.28;1.88;;;;;;;;;;6262401;28;20048;-69
2023/01/19 09:17:53;;;;;;;3.90;2.20;;;;;;;;;;6268626;28;20049;-74
2023/01/19 09:20:57;;;;;;;3.50;1.85;;;;;;;;;;6264820;28;20077;-72
2023/01/19 09:23:58;;;;;;;3.50;2.05;;;;;;;;;;6268404;28;20351;-69
2023/01/19 09:27:00;;;;;;;3.25;2.10;;;;;;;;;;6265834;28;20053;-72
2023/01/19 09:30:04;;;;;;;3.13;2.08;;;;;;;;;;6266267;28;20143;-72
2023/01/19 09:33:07;;;;;;;4.43;2.22;;;;;;;;;;6265561;28;20061;-72
2023/01/19 09:36:09;;;;;;;5.32;2.30;;;;;;;;;;6265343;28;20053;-70
2023/01/19 09:39:11;;;;;;;5.38;2.22;;;;;;;;;;6265979;28;20452;-73
2023/01/19 09:42:20;;;;;;;3.72;2.10;;;;;;;;;;6267655;28;20045;-71
2023/01/19 09:45:29;;;;;;;2.97;2.03;;;;;;;;;;6267384;28;20325;-72
2023/01/19 09:48:39;;;;;;;3.83;2.17;;;;;;;;;;6268440;28;20104;-74
2023/01/19 09:51:44;;;;;;;3.33;2.20;;;;;;;;;;6267350;28;20049;-70
2023/01/19 09:54:51;;;;;;;3.17;1.80;;;;;;;;;;6264580;28;20279;-74
2023/01/19 09:57:53;;;;;;;5.32;2.40;;;;;;;;;;6261570;28;20044;-70
2023/01/19 10:01:01;;;;;;;4.65;2.45;;;;;;;;;;6265999;28;20045;-69
2023/01/19 10:04:29;;;;;;;4.40;1.73;;;;;;;;;;6264502;28;20178;-70
2023/01/19 10:07:43;;;;;;;3.28;1.98;;;;;;;;;;6265277;28;20051;-69
2023/01/19 10:10:47;;;;;;;3.67;2.30;;;;;;;;;;6264368;28;20064;-70
2023/01/19 10:13:51;;;;;;;5.25;2.25;;;;;;;;;;6262943;28;20053;-70
2023/01/19 10:17:01;;;;;;;3.00;2.00;;;;;;;;;;6265084;28;20390;-67
2023/01/19 10:20:03;;;;;;;7.85;3.00;;;;;;;;;;6263512;28;20037;-69
2023/01/19 10:23:20;;;;;;;6.80;1.90;;;;;;;;;;6264247;28;20052;-73
2023/01/19 10:26:24;;;;;;;4.20;2.15;;;;;;;;;;6267938;28;20041;-73
2023/01/19 10:29:26;;;;;;;;;;;;;;;;;;6262498;28;20342;-72
2023/01/19 10:32:30;;;;;;;4.18;2.20;;;;;;;;;;6262686;28;19986;-72
2023/01/19 10:35:32;;;;;;;2.50;1.48;;;;;;;;;;6267426;28;20439;-74
2023/01/19 10:38:35;;;;;;;2.80;1.60;;;;;;;;;;6265199;28;20060;-73
2023/01/19 10:41:41;;;;;;;3.90;1.90;;;;;;;;;;6262205;28;20045;-71
2023/01/19 10:44:44;;;;;;;3.55;1.65;;;;;;;;;;6263827;28;20053;-73
2023/01/19 10:47:48;;;;;;;2.33;1.63;;;;;;;;;;6269062;28;20358;-73
2023/01/19 10:51:01;;;;;;;4.65;1.92;;;;;;;;;;6263953;28;20049;-73
2023/01/19 10:54:04;;;;;;;3.55;1.52;;;;;;;;;;6262173;28;20104;-71
2023/01/19 10:57:08;;;;;;;1.70;1.27;;;;;;;;;;6260803;28;20078;-70
2023/01/19 11:00:30;;;;;;;3.03;1.58;;;;;;;;;;6268615;28;20072;-69
2023/01/19 11:03:33;;;;;;;2.80;1.45;;;;;;;;;;6259777;28;20053;-72
2023/01/19 11:06:34;;;;;;;3.95;1.73;;;;;;;;;;6262012;28;20056;-72
2023/01/19 11:09:36;;;;;;;3.03;1.65;;;;;;;;;;6261590;28;20343;-72
2023/01/19 11:12:40;;;;;;;4.45;1.67;;;;;;;;;;6260300;28;20056;-72
2023/01/19 11:15:43;;;;;;;2.95;1.60;;;;;;;;;;6261137;28;20045;-71
2023/01/19 11:18:51;;;;;;;2.88;1.30;;;;;;;;;;6265488;28;20057;-72
2023/01/19 11:21:54;;;;;;;4.63;1.77;;;;;;;;;;6265585;28;20067;-71
2023/01/19 11:24:59;;;;;;;1.83;1.60;;;;;;;;;;6262675;28;20303;-71
2023/01/19 11:28:01;;;;;;;4.28;1.67;;;;;;;;;;6264313;28;20099;-70
2023/01/19 11:31:17;;;;;;;5.65;1.60;;;;;;;;;;6264916;28;20053;-70
2023/01/19 11:34:26;;;;;;;5.13;1.63;;;;;;;;;;6264784;28;20049;-71
2023/01/19 11:37:33;;;;;;;3.38;1.95;;;;;;;;;;6259267;28;20100;-71
2023/01/19 11:40:35;;;;;;;3.47;2.28;;;;;;;;;;6262501;28;20053;-71
2023/01/19 11:43:37;;;;;;;3.33;2.20;;;;;;;;;;6263719;28;20049;-72
2023/01/19 11:46:39;;;;;;;4.45;2.13;;;;;;;;;;6263175;28;20052;-71
2023/01/19 11:49:47;;;;;;;2.53;1.65;;;;;;;;;;6260645;28;20111;-72
2023/01/19 11:52:53;;;;;;;4.43;2.10;;;;;;;;;;6265011;28;20052;-72
2023/01/19 11:55:57;;;;;;;2.90;1.88;;;;;;;;;;6261568;28;20049;-69
2023/01/19 11:58:59;;;;;;;3.05;1.85;;;;;;;;;;6258457;28;20053;-71
2023/01/19 12:02:02;;;;;;;2.88;1.60;;;;;;;;;;6262666;28;20472;-72
2023/01/19 12:05:09;;;;;;;1.63;1.10;;;;;;;;;;6261018;28;20057;-70
2023/01/19 12:08:15;;;;;;;2.25;1.20;;;;;;;;;;6268424;28;20114;-72
2023/01/19 12:11:19;;;;;;;3.00;1.10;;;;;;;;;;6264415;28;20053;-72
2023/01/19 12:14:25;;;;;;;1.67;1.13;;;;;;;;;;6267170;28;20053;-71
2023/01/19 12:17:29;;;;;;;1.20;0.80;;;;;;;;;;6265765;28;20056;-68
2023/01/19 12:20:34;;;;;;;2.20;1.10;;;;;;;;;;6265829;28;20117;-70
2023/01/19 12:23:44;;;;;;;1.50;0.80;;;;;;;;;;6267684;28;20057;-69
2023/01/19 12:26:49;;;;;;;3.28;1.42;;;;;;;;;;6264432;28;20376;-71
2023/01/19 12:29:51;;;;;;;2.17;1.10;;;;;;;;;;6267003;28;20053;-70
2023/01/19 12:33:22;;;;;;;5.13;2.00;;;;;;;;;;6270448;28;20068;-72
2023/01/19 12:36:38;;;;;;;3.13;1.20;;;;;;;;;;6268975;28;20053;-71
2023/01/19 12:39:47;;;;;;;1.75;1.20;;;;;;;;;;6269797;28;20360;-72
2023/01/19 12:43:00;;;;;;;2.20;1.10;;;;;;;;;;6270249;28;20053;-71
2023/01/19 12:46:02;;;;;;;3.00;1.42;;;;;;;;;;6269399;28;20041;-71
2023/01/19 12:49:04;;;;;;;2.53;1.25;;;;;;;;;;6267590;28;20061;-71
2023/01/19 12:52:22;;;;;;;2.55;1.50;;;;;;;;;;6275132;28;20107;-71
2023/01/19 12:55:29;;;;;;;2.13;1.42;;;;;;;;;;6263981;28;20051;-69
2023/01/19 12:58:33;;;;;;;2.35;1.48;;;;;;;;;;6256248;28;20060;-71
2023/01/19 13:01:35;;;;;;;4.93;1.38;;;;;;;;;;6265652;28;20053;-75
2023/01/19 13:04:36;;;;;;;1.80;1.70;;;;;;;;;;6266326;28;20049;-75
2023/01/19 13:08:14;;;;;;;2.25;1.40;;;;;;;;;;6267572;28;20110;-72
2023/01/19 13:11:18;;;;;;;4.47;1.70;;;;;;;;;;6267936;28;20068;-73
2023/01/19 13:14:35;;;;;;;4.43;2.08;;;;;;;;;;6268289;28;22140;-69
2023/01/19 13:17:46;;;;;;;2.20;1.10;;;;;;;;;;6268614;28;20278;-69
2023/01/19 13:20:51;;;;;;;3.92;1.60;;;;;;;;;;6263945;28;20056;-73
2023/01/19 13:23:56;;;;;;;6.95;1.67;;;;;;;;;;6263564;28;20102;-74
2023/01/19 13:27:02;;;;;;;3.08;1.50;;;;;;;;;;6263053;28;20139;-73
2023/01/19 13:30:10;;;;;;;2.45;1.42;;;;;;;;;;6264528;28;20259;-73
2023/01/19 13:33:17;;;;;;;3.92;1.50;;;;;;;;;;6264953;28;21072;-72
2023/01/19 13:36:25;;;;;;;2.80;1.30;;;;;;;;;;6267472;28;20100;-73
2023/01/19 13:39:29;;;;;;;1.58;1.15;;;;;;;;;;6266955;28;20068;-72
2023/01/19 13:42:34;;;;;;;3.15;1.40;;;;;;;;;;6258764;28;20063;-73
2023/01/19 13:45:38;;;;;;;1.63;1.10;;;;;;;;;;6260047;28;20125;-71
2023/01/19 13:48:40;;;;;;;3.53;1.70;;;;;;;;;;6263919;28;20666;-70
2023/01/19 13:51:42;;;;;;;1.98;1.38;;;;;;;;;;6264667;28;20099;-73
2023/01/19 13:54:49;;;;;;;3.50;1.55;;;;;;;;;;6264772;28;20107;-73
2023/01/19 13:57:51;;;;;;;3.05;1.27;;;;;;;;;;6261686;28;20053;-73
2023/01/19 14:00:53;;;;;;;2.08;1.33;;;;;;;;;;6264579;28;20053;-72
2023/01/19 14:03:55;;;;;;;4.50;1.58;;;;;;;;;;6262918;28;20053;-73
2023/01/19 14:06:57;;;;;;;3.42;1.52;;;;;;;;;;6267640;28;20056;-73
2023/01/19 14:10:05;;;;;;;1.73;1.15;;;;;;;;;;6270822;28;20057;-73
2023/01/19 14:13:15;;;;;;;3.15;1.83;;;;;;;;;;6263312;28;20063;-71
2023/01/19 14:16:17;;;;;;;3.80;1.80;;;;;;;;;;6264126;28;20052;-70
2023/01/19 14:19:19;;;;;;;6.93;2.33;;;;;;;;;;6265062;28;20337;-72
2023/01/19 14:22:21;;;;;;;3.70;2.00;;;;;;;;;;6266061;28;20306;-72
2023/01/19 14:25:29;;;;;;;5.60;2.20;;;;;;;;;;6264346;28;20147;-74
2023/01/19 14:28:41;;;;;;;5.78;1.58;;;;;;;;;;6260647;28;20099;-73
2023/01/19 14:31:44;;;;;;;4.80;1.80;;;;;;;;;;6259378;28;20059;-69
2023/01/19 14:34:48;;;;;;;2.60;1.60;;;;;;;;;;6269749;28;20094;-73
2023/01/19 14:37:51;;;;;;;2.15;1.60;;;;;;;;;;6266258;28;20045;-74
2023/01/19 14:40:54;;;;;;;2.50;1.40;;;;;;;;;;6266438;28;20080;-70
2023/01/19 14:43:55;;;;;;;2.97;2.08;;;;;;;;;;6264875;28;20053;-73
2023/01/19 14:46:58;;;;;;;2.63;1.75;;;;;;;;;;6262381;28;20264;-72
2023/01/19 14:50:06;;;;;;;3.63;1.90;;;;;;;;;;6267629;28;20076;-73
2023/01/19 14:53:16;;;;;;;3.05;1.80;;;;;;;;;;6263657;28;20052;-73
2023/01/19 14:56:27;;;;;;;2.55;1.70;;;;;;;;;;6267135;28;20055;-74
2023/01/19 14:59:29;;;;;;;2.90;1.48;;;;;;;;;;6262992;28;20120;-72
2023/01/19 15:02:30;;;;;;;3.05;1.92;;;;;;;;;;6262514;28;20332;-68
2023/01/19 15:05:32;;;;;;;2.60;1.73;;;;;;;;;;6261972;28;20045;-73
2023/01/19 15:08:36;;;;;;;3.53;1.52;;;;;;;;;;6261912;28;20118;-74
2023/01/19 15:11:40;;;;;;;2.33;1.70;;;;;;;;;;6261897;28;20099;-73
2023/01/19 15:14:42;;;;;;;2.47;1.58;;;;;;;;;;6261577;28;20092;-72
2023/01/19 15:17:44;;;;;;;2.72;1.40;;;;;;;;;;6265905;28;20053;-69
2023/01/19 15:20:45;;;;;;;2.58;1.70;;;;;;;;;;6263885;28;20059;-73
2023/01/19 15:23:47;;;;;;;3.75;2.30;;;;;;;;;;6262369;28;20041;-70
2023/01/19 15:26:51;;;;;;;4.03;2.10;;;;;;;;;;6262462;28;20380;-73
2023/01/19 15:29:53;;;;;;;2.53;1.83;;;;;;;;;;6261619;28;20044;-73
2023/01/19 15:32:54;;;;;;;2.22;1.60;;;;;;;;;;6254202;28;20061;-72
2023/01/19 15:35:56;;;;;;;2.40;1.67;;;;;;;;;;6258133;28;20045;-73
2023/01/19 15:38:58;;;;;;;2.88;2.03;;;;;;;;;;6261967;28;20244;-69
2023/01/19 15:42:01;;;;;;;2.13;1.48;;;;;;;;;;6257150;28;20045;-70
2023/01/19 15:45:03;;;;;;;2.45;1.40;;;;;;;;;;6266767;28;20075;-71
2023/01/19 15:48:07;;;;;;;2.47;1.80;;;;;;;;;;6265030;28;20377;-70
2023/01/19 15:51:12;;;;;;;3.08;1.35;;;;;;;;;;6264227;28;20271;-72
2023/01/19 15:54:14;;;;;;;2.13;1.40;;;;;;;;;;6271534;28;20065;-71
2023/01/19 15:57:17;;;;;;;2.53;1.48;;;;;;;;;;6266199;28;20282;-72
2023/01/19 16:00:19;;;;;;;1.95;1.45;;;;;;;;;;6267389;28;20069;-71
2023/01/19 16:03:21;;;;;;;2.17;1.52;;;;;;;;;;6264984;28;20049;-71
2023/01/19 16:06:22;;;;;;;2.17;1.25;;;;;;;;;;6265039;28;20049;-73
2023/01/19 16:09:24;;;;;;;3.88;1.35;;;;;;;;;;6268366;28;20340;-72
2023/01/19 16:12:28;;;;;;;2.75;1.35;;;;;;;;;;6268806;28;20061;-68
2023/01/19 16:15:30;;;;;;;2.28;1.48;;;;;;;;;;6268275;28;20041;-73
2023/01/19 16:18:31;;;;;;;2.33;1.20;;;;;;;;;;6267214;28;20071;-70
2023/01/19 16:21:33;;;;;;;3.15;1.45;;;;;;;;;;6265808;28;20154;-69
2023/01/19 16:24:35;;;;;;;1.90;1.30;;;;;;;;;;6267685;28;20046;-71
2023/01/19 16:27:40;;;;;;;2.05;1.10;;;;;;;;;;6265449;28;20061;-70
2023/01/19 16:30:42;;;;;;;1.92;1.38;;;;;;;;;;6264684;28;20267;-71
2023/01/19 16:33:44;;;;;;;4.20;1.42;;;;;;;;;;6267343;28;20133;-72
2023/01/19 16:36:46;;;;;;;3.22;1.92;;;;;;;;;;6264916;28;20606;-73
2023/01/19 16:39:50;;;;;;;3.83;2.20;;;;;;;;;;6267228;28;20152;-73
2023/01/19 16:42:53;;;;;;;2.95;2.03;;;;;;;;;;6265369;28;20320;-72
2023/01/19 16:45:59;;;;;;;3.63;1.90;;;;;;;;;;6265349;28;20045;-69
2023/01/19 16:49:01;;;;;;;3.17;2.40;;;;;;;;;;6260715;28;20056;-72
2023/01/19 16:52:03;;;;;;;3.70;2.13;;;;;;;;;;6264187;28;20064;-72
2023/01/19 16:55:08;;;;;;;3.15;2.20;;;;;;;;;;6265010;28;20067;-72
2023/01/19 16:58:11;;;;;;;;;;;;;;;;;;6262634;28;20091;-72
2023/01/19 17:01:14;;;;;;;2.85;1.75;;;;;;;;;;6266215;28;19924;-72
2023/01/19 17:04:16;;;;;;;5.07;1.90;;;;;;;;;;6239310;28;20309;-72
2023/01/19 17:07:18;;;;;;;2.78;2.17;;;;;;;;;;6265027;28;20052;-72
2023/01/19 17:10:20;;;;;;;2.88;1.90;;;;;;;;;;6264672;28;20102;-71
2023/01/19 17:13:23;;;;;;;2.55;1.73;;;;;;;;;;6266737;28;20053;-72
2023/01/19 17:16:25;;;;;;;4.10;2.10;;;;;;;;;;6266467;28;20052;-72
2023/01/19 17:19:26;;;;;;;2.97;2.08;;;;;;;;;;6265158;28;20099;-71
2023/01/19 17:22:28;;;;;;;4.15;2.00;;;;;;;;;;6265142;28;20320;-72
2023/01/19 17:25:30;;;;;;;4.22;2.65;;;;;;;;;;6258756;28;20045;-72
2023/01/19 17:28:33;;;;;;;4.63;2.45;;;;;;;;;;6267200;28;20044;-72
2023/01/19 17:31:35;;;;;;;3.60;2.10;;;;;;;;;;6266503;28;20053;-67
2023/01/19 17:34:36;;;;;;;4.32;1.75;;;;;;;;;;6267068;28;20254;-72
2023/01/19 17:37:38;;;;;;;2.50;1.73;;;;;;;;;;6265386;28;20056;-72
2023/01/19 17:40:40;;;;;;;3.67;2.40;;;;;;;;;;6264416;28;20281;-71
2023/01/19 17:43:44;;;;;;;4.22;2.15;;;;;;;;;;6265657;28;20061;-71
2023/01/19 17:46:45;;;;;;;3.80;1.90;;;;;;;;;;6263834;28;20041;-71
2023/01/19 17:49:47;;;;;;;3.53;2.08;;;;;;;;;;6263948;28;20053;-71
2023/01/19 17:52:49;;;;;;;3.40;1.77;;;;;;;;;;6264462;28;20069;-71
2023/01/19 17:55:50;;;;;;;3.65;2.20;;;;;;;;;;6264114;28;20053;-74
2023/01/19 17:58:54;;;;;;;177.95;71.82;;;;;;;;;;6265837;28;20053;-74
2023/01/19 18:01:55;;;;;;;107.78;47.40;;;;;;;;;;6268056;28;20091;-73
2023/01/19 18:04:59;;;;;;;22.25;11.48;;;;;;;;;;6264626;28;20063;-72
2023/01/19 18:08:01;;;;;;;3.67;2.38;;;;;;;;;;6262065;28;20083;-71
2023/01/19 18:11:03;;;;;;;4.40;2.15;;;;;;;;;;6262821;28;20115;-71
2023/01/19 18:14:06;;;;;;;2.88;2.00;;;;;;;;;;6263629;28;20061;-72
2023/01/19 18:17:08;;;;;;;5.35;2.50;;;;;;;;;;6266062;28;20052;-72
2023/01/19 18:20:11;;;;;;;3.33;1.98;;;;;;;;;;6264284;28;20056;-71
2023/01/19 18:23:12;;;;;;;3.60;2.05;;;;;;;;;;6261758;28;20099;-72